createdAt,value
2022-10-28T04:46:01.946Z,75.73
2022-10-28T04:47:03.137Z,75.16
2022-10-28T04:48:02.917Z,74.73
2022-10-28T04:49:02.910Z,74.02
2022-10-28T04:50:02.892Z,75.53
2022-10-28T04:51:02.911Z,76.37
2022-10-28T04:52:02.885Z,76.10
2022-10-28T04:53:02.854Z,77.11
2022-10-28T04:54:02.846Z,76.84
2022-10-28T04:55:02.829Z,78.36
2022-10-28T04:56:02.823Z,78.30
2022-10-28T04:57:02.831Z,78.80
2022-10-28T04:58:02.802Z,79.50
2022-10-28T04:59:02.789Z,79.74
2022-10-28T05:00:02.782Z,79.14
2022-10-28T05:01:02.791Z,80.55
2022-10-28T05:02:02.933Z,79.74
2022-10-28T05:03:02.828Z,80.25
2022-10-28T05:04:02.784Z,80.85
2022-10-28T05:05:02.722Z,81.10
2022-10-28T05:06:09.245Z,80.79
2022-10-28T05:07:02.702Z,79.24
2022-10-28T05:08:02.711Z,77.35
2022-10-28T05:09:02.680Z,76.00
2022-10-28T05:10:02.679Z,74.66
2022-10-28T05:11:02.660Z,74.42
2022-10-28T05:12:02.652Z,74.12
2022-10-28T05:13:02.650Z,74.96
2022-10-28T05:14:02.643Z,75.87
2022-10-28T05:15:02.619Z,76.40
2022-10-28T05:16:02.611Z,78.06
2022-10-28T05:17:02.596Z,77.79
2022-10-28T05:18:02.610Z,78.90
2022-10-28T05:19:02.571Z,79.54
2022-10-28T05:20:02.577Z,80.35
2022-10-28T05:21:02.593Z,80.79
2022-10-28T05:22:02.551Z,81.64
2022-10-28T05:23:02.529Z,82.24
2022-10-28T05:24:02.523Z,82.59
2022-10-28T05:25:02.516Z,83.19
2022-10-28T05:26:02.536Z,83.50
2022-10-28T05:27:02.491Z,83.60
2022-10-28T05:28:02.481Z,84.04
2022-10-28T05:29:02.466Z,81.34
2022-10-28T05:30:02.465Z,81.80
2022-10-28T05:31:02.456Z,80.99
2022-10-28T05:32:02.473Z,81.70
2022-10-28T05:33:02.623Z,81.94
2022-10-28T05:34:02.419Z,82.35
2022-10-28T05:35:02.405Z,82.75
2022-10-28T05:36:02.420Z,83.29
2022-10-28T05:37:02.396Z,83.50
2022-10-28T05:38:02.378Z,83.54
2022-10-28T05:39:02.360Z,83.84
2022-10-28T05:40:02.363Z,83.19
2022-10-28T05:41:02.360Z,81.34
2022-10-28T05:42:02.340Z,80.99
2022-10-28T05:43:02.325Z,80.49
2022-10-28T05:44:02.319Z,80.15
2022-10-28T05:45:02.298Z,80.49
2022-10-28T05:46:02.308Z,81.20
2022-10-28T05:47:02.286Z,81.70
2022-10-28T05:48:02.280Z,82.45
2022-10-28T05:49:02.258Z,82.79
2022-10-28T05:50:02.253Z,83.19
2022-10-28T05:51:02.256Z,83.60
2022-10-28T05:52:02.248Z,84.25
2022-10-28T05:53:02.216Z,84.45
2022-10-28T05:54:02.205Z,84.85
2022-10-28T05:55:02.197Z,85.30
2022-10-28T05:56:02.203Z,85.50
2022-10-28T05:57:02.170Z,85.70
2022-10-28T05:58:02.164Z,85.80
2022-10-28T05:59:02.157Z,86.10
2022-10-28T06:00:02.154Z,86.51
2022-10-28T06:01:02.147Z,86.45
2022-10-28T06:02:02.130Z,86.65
2022-10-28T06:03:02.117Z,86.76
2022-10-28T06:04:02.185Z,86.41
2022-10-28T06:05:02.088Z,86.41
2022-10-28T06:06:02.097Z,85.39
2022-10-28T06:07:02.071Z,83.70
2022-10-28T06:08:02.067Z,83.90
2022-10-28T06:09:02.046Z,83.36
2022-10-28T06:10:02.037Z,83.05
2022-10-28T06:11:00.511Z,83.26
2022-10-28T06:12:00.491Z,82.75
2022-10-28T06:13:00.471Z,83.15
2022-10-28T06:14:00.465Z,83.26
2022-10-28T06:15:00.454Z,82.95
2022-10-28T06:16:00.459Z,82.14
2022-10-28T06:17:00.430Z,81.70
2022-10-28T06:18:00.431Z,82.31
2022-10-28T06:19:00.420Z,80.96
2022-10-28T06:20:00.408Z,80.55
2022-10-28T06:21:00.427Z,80.11
2022-10-28T06:22:00.397Z,79.71
2022-10-28T06:23:00.375Z,78.16
2022-10-28T06:24:00.365Z,78.83
2022-10-28T06:25:00.354Z,78.56
2022-10-28T06:26:00.360Z,79.36
2022-10-28T06:27:00.342Z,79.77
2022-10-28T06:28:00.334Z,80.11
2022-10-28T06:29:00.313Z,79.36
2022-10-28T06:30:00.325Z,79.77
2022-10-28T06:31:00.317Z,79.16
2022-10-28T06:32:00.293Z,79.77
2022-10-28T06:33:00.275Z,80.62
2022-10-28T06:34:00.278Z,80.51
2022-10-28T06:35:00.258Z,79.91
2022-10-28T06:36:00.266Z,80.51
2022-10-28T06:37:00.239Z,80.72
2022-10-28T06:38:00.232Z,81.12
2022-10-28T06:39:00.214Z,81.22
2022-10-28T06:40:00.216Z,80.62
2022-10-28T06:41:00.220Z,80.01
2022-10-28T06:42:00.198Z,80.18
2022-10-28T06:43:00.195Z,80.38
2022-10-28T06:44:00.172Z,81.22
2022-10-28T06:45:00.157Z,81.12
2022-10-28T06:46:00.174Z,80.41
2022-10-28T06:47:01.696Z,80.38
2022-10-28T06:48:01.646Z,80.27
2022-10-28T06:49:01.688Z,80.78
2022-10-28T06:50:01.629Z,81.38
2022-10-28T06:51:01.629Z,81.62
2022-10-28T06:52:01.608Z,80.92
2022-10-28T06:53:01.590Z,81.62
2022-10-28T06:54:01.590Z,81.73
2022-10-28T06:55:01.574Z,81.82
2022-10-28T06:56:01.589Z,82.03
2022-10-28T06:57:01.556Z,79.77
2022-10-28T06:58:01.557Z,79.53
2022-10-28T06:59:01.535Z,79.13
2022-10-28T07:00:01.534Z,80.04
2022-10-28T07:01:01.529Z,79.83
2022-10-28T07:02:01.762Z,81.15
2022-10-28T07:03:01.743Z,81.35
2022-10-28T07:04:01.486Z,81.79
2022-10-28T07:05:01.478Z,82.19
2022-10-28T07:06:01.532Z,82.73
2022-10-28T07:07:01.471Z,82.23
2022-10-28T07:08:01.446Z,83.84
2022-10-28T07:09:01.447Z,83.64
2022-10-28T07:10:01.436Z,84.35
2022-10-28T07:11:01.416Z,84.49
2022-10-28T07:12:04.748Z,84.79
2022-10-28T07:13:01.396Z,83.28
2022-10-28T07:14:01.393Z,84.79
2022-10-28T07:15:01.380Z,81.62
2022-10-28T07:16:01.374Z,81.59
2022-10-28T07:17:01.383Z,82.90
2022-10-28T07:18:01.348Z,82.50
2022-10-28T07:19:01.338Z,82.90
2022-10-28T07:20:01.331Z,83.40
2022-10-28T07:21:01.369Z,82.39
2022-10-28T07:22:01.317Z,82.29
2022-10-28T07:23:01.295Z,83.40
2022-10-28T07:24:01.292Z,83.20
2022-10-28T07:25:01.282Z,80.58
2022-10-28T07:26:01.291Z,82.56
2022-10-28T07:27:01.277Z,82.15
2022-10-28T07:28:01.248Z,81.75
2022-10-28T07:29:01.239Z,80.84
2022-10-28T07:30:01.230Z,80.10
2022-10-28T07:31:01.264Z,81.41
2022-10-28T07:32:01.228Z,80.00
2022-10-28T07:33:01.218Z,81.01
2022-10-28T07:34:01.188Z,81.41
2022-10-28T07:35:01.176Z,79.80
2022-10-28T07:36:01.171Z,79.16
2022-10-28T07:37:01.177Z,78.85
2022-10-28T07:38:01.149Z,78.85
2022-10-28T07:39:01.136Z,78.85
2022-10-28T07:40:01.131Z,79.25
2022-10-28T07:41:01.120Z,79.25
2022-10-28T07:42:01.140Z,79.16
2022-10-28T07:43:01.095Z,78.65
2022-10-28T07:44:01.086Z,78.71
2022-10-28T07:45:01.069Z,79.76
2022-10-28T07:46:01.089Z,80.06
2022-10-28T07:47:01.047Z,80.16
2022-10-28T07:48:01.039Z,81.37
2022-10-28T07:49:01.031Z,80.46
2022-10-28T07:50:01.021Z,80.30
2022-10-28T07:51:01.013Z,79.69
2022-10-28T07:52:01.014Z,79.96
2022-10-28T07:53:01.115Z,79.86
2022-10-28T07:54:00.976Z,80.97
2022-10-28T07:55:00.967Z,81.67
2022-10-28T07:56:00.973Z,81.37
2022-10-28T07:57:00.947Z,80.80
2022-10-28T07:58:00.929Z,81.30
2022-10-28T07:59:00.918Z,81.61
2022-10-28T08:00:00.906Z,82.31
2022-10-28T08:01:00.974Z,81.81
2022-10-28T08:02:00.945Z,82.31
2022-10-28T08:03:00.878Z,82.48
2022-10-28T08:04:00.855Z,80.20
2022-10-28T08:05:00.846Z,81.07
2022-10-28T08:06:00.851Z,79.36
2022-10-28T08:07:00.829Z,78.51
2022-10-28T08:08:00.804Z,80.32
2022-10-28T08:09:00.797Z,79.88
2022-10-28T08:10:00.780Z,79.22
2022-10-28T08:11:00.783Z,81.03
2022-10-28T08:12:00.760Z,79.32
2022-10-28T08:13:00.742Z,79.88
2022-10-28T08:14:00.725Z,78.78
2022-10-28T08:15:00.725Z,80.99
2022-10-28T08:16:00.723Z,79.68
2022-10-28T08:17:00.694Z,79.88
2022-10-28T08:18:00.677Z,79.88
2022-10-28T08:19:04.002Z,77.63
2022-10-28T08:20:00.665Z,77.73
2022-10-28T08:22:00.633Z,74.55
2022-10-28T08:23:02.899Z,75.75
2022-10-28T08:24:00.609Z,75.11
2022-10-28T08:25:00.606Z,74.71
2022-10-28T08:26:00.609Z,74.11
2022-10-28T08:27:00.588Z,74.31
2022-10-28T08:28:00.572Z,73.97
2022-10-28T08:29:00.561Z,73.87
2022-10-28T08:30:00.554Z,73.97
2022-10-28T08:31:08.356Z,74.18
2022-10-28T08:32:00.523Z,73.27
2022-10-28T08:33:00.513Z,74.04
2022-10-28T08:34:00.508Z,73.84
2022-10-28T08:35:00.494Z,73.64
2022-10-28T08:36:00.494Z,73.20
2022-10-28T08:37:00.539Z,72.24
2022-10-28T08:38:00.463Z,72.90
2022-10-28T08:39:00.457Z,71.80
2022-10-28T08:40:00.447Z,71.96
2022-10-28T08:41:00.454Z,70.96
2022-10-28T08:42:00.434Z,71.96
2022-10-28T08:43:00.416Z,70.66
2022-10-28T08:44:00.402Z,70.83
2022-10-28T08:45:00.411Z,71.03
2022-10-28T08:46:00.386Z,70.29
2022-10-28T08:47:00.375Z,69.26
2022-10-28T08:49:00.360Z,66.83
2022-10-28T08:50:00.358Z,66.66
2022-10-28T08:51:00.339Z,64.07
2022-10-28T08:52:00.323Z,66.00
2022-10-28T08:53:00.314Z,67.16
2022-10-28T08:54:00.309Z,66.27
2022-10-28T08:55:00.321Z,65.47
2022-10-28T08:56:00.279Z,65.80
2022-10-28T08:57:00.283Z,65.90
2022-10-28T08:58:00.265Z,65.80
2022-10-28T08:59:00.263Z,66.93
2022-10-28T09:00:00.258Z,67.19
2022-10-28T09:01:00.368Z,68.29
2022-10-28T09:02:00.221Z,68.23
2022-10-28T09:03:00.210Z,68.96
2022-10-28T09:04:00.203Z,69.69
2022-10-28T09:05:00.216Z,71.09
2022-10-28T09:06:00.175Z,70.29
2022-10-28T09:07:00.345Z,70.39
2022-10-28T09:08:00.160Z,71.33
2022-10-28T09:09:00.156Z,70.56
2022-10-28T09:10:00.184Z,70.86
2022-10-28T09:11:00.133Z,71.36
2022-10-28T09:12:00.113Z,71.56
2022-10-28T09:13:00.114Z,71.83
2022-10-28T09:14:00.100Z,71.77
2022-10-28T09:15:00.132Z,71.06
2022-10-28T09:16:00.085Z,70.19
2022-10-28T09:17:00.082Z,68.86
2022-10-28T09:18:00.056Z,69.06
2022-10-28T09:19:00.046Z,68.36
2022-10-28T09:20:00.047Z,68.32
2022-10-28T09:21:00.028Z,67.52
2022-10-28T09:22:00.012Z,68.19
2022-10-28T09:23:00.010Z,68.49
2022-10-28T09:23:59.987Z,66.99
2022-10-28T09:25:00.005Z,66.46
2022-10-28T09:25:59.970Z,66.16
2022-10-28T09:26:59.961Z,65.17
2022-10-28T09:27:59.957Z,63.84
2022-10-28T09:29:00.005Z,63.18
2022-10-28T09:29:59.944Z,61.96
2022-10-28T09:30:59.918Z,62.29
2022-10-28T09:31:59.904Z,62.84
2022-10-28T09:32:59.907Z,64.27
2022-10-28T09:33:59.882Z,63.21
2022-10-28T09:34:59.921Z,62.15
2022-10-28T09:35:59.859Z,61.76
2022-10-28T09:36:59.855Z,62.61
2022-10-28T09:37:59.842Z,62.81
2022-10-28T09:38:59.837Z,62.38
2022-10-28T09:39:59.816Z,62.35
2022-10-28T09:40:59.822Z,61.43
2022-10-28T09:41:59.797Z,60.08
2022-10-28T09:42:59.792Z,59.15
2022-10-28T09:43:59.782Z,59.35
2022-10-28T09:44:59.886Z,58.45
2022-10-28T09:45:59.766Z,57.81
2022-10-28T09:46:59.747Z,58.51
2022-10-28T09:47:59.732Z,55.96
2022-10-28T09:48:59.734Z,57.31
2022-10-28T09:49:59.712Z,58.58
2022-10-28T09:50:59.721Z,60.33
2022-10-28T09:51:59.685Z,61.39
2022-10-28T09:52:59.676Z,62.68
2022-10-28T09:53:59.667Z,62.29
2022-10-28T09:54:59.745Z,62.51
2022-10-28T09:55:59.698Z,62.95
2022-10-28T09:56:59.638Z,61.69
2022-10-28T09:57:59.624Z,60.60
2022-10-28T09:58:59.613Z,60.70
2022-10-28T09:59:59.623Z,59.75
2022-10-28T10:00:59.605Z,58.86
2022-10-28T10:01:59.738Z,58.78
2022-10-28T10:02:59.659Z,58.33
2022-10-28T10:03:59.556Z,57.38
2022-10-28T10:04:59.552Z,57.01
2022-10-28T10:05:59.646Z,57.41
2022-10-28T10:06:59.528Z,58.26
2022-10-28T10:07:59.515Z,59.05
2022-10-28T10:08:59.510Z,60.63
2022-10-28T10:09:59.561Z,61.13
2022-10-28T10:10:59.511Z,60.87
2022-10-28T10:11:59.472Z,59.91
2022-10-28T10:12:59.860Z,60.86
2022-10-28T10:13:59.453Z,62.13
2022-10-28T10:14:59.475Z,61.13
2022-10-28T10:15:59.429Z,62.18
2022-10-28T10:16:59.435Z,62.18
2022-10-28T10:17:59.412Z,61.99
2022-10-28T10:18:59.419Z,61.46
2022-10-28T10:19:59.416Z,60.96
2022-10-28T10:20:59.383Z,61.16
2022-10-28T10:21:59.380Z,61.33
2022-10-28T10:22:59.366Z,60.13
2022-10-28T10:23:59.349Z,60.00
2022-10-28T10:24:59.348Z,57.60
2022-10-28T10:25:59.355Z,56.41
2022-10-28T10:26:59.331Z,56.09
2022-10-28T10:27:59.319Z,56.95
2022-10-28T10:28:59.301Z,57.56
2022-10-28T10:29:59.292Z,59.48
2022-10-28T10:30:59.298Z,58.88
2022-10-28T10:31:59.272Z,58.43
2022-10-28T10:32:59.262Z,57.38
2022-10-28T10:33:59.248Z,56.40
2022-10-28T10:34:59.263Z,54.89
2022-10-28T10:36:00.335Z,53.95
2022-10-28T10:36:59.274Z,53.75
2022-10-28T10:37:59.215Z,54.30
2022-10-28T10:38:59.206Z,54.13
2022-10-28T10:39:59.204Z,56.06
2022-10-28T10:40:59.201Z,56.26
2022-10-28T10:41:59.169Z,56.19
2022-10-28T10:43:10.075Z,55.76
2022-10-28T10:43:59.214Z,55.57
2022-10-28T10:44:59.160Z,54.68
2022-10-28T10:45:59.125Z,54.15
2022-10-28T10:47:03.469Z,54.49
2022-10-28T10:47:59.116Z,53.60
2022-10-28T10:48:59.097Z,54.57
2022-10-28T10:49:59.096Z,54.81
2022-10-28T10:50:59.080Z,53.33
2022-10-28T10:51:59.058Z,52.91
2022-10-28T10:52:59.056Z,53.50
2022-10-28T10:53:59.037Z,54.12
2022-10-28T10:54:59.052Z,52.46
2022-10-28T10:55:59.017Z,53.20
2022-10-28T10:56:59.017Z,54.93
2022-10-28T10:57:58.999Z,57.18
2022-10-28T10:58:59.007Z,57.48
2022-10-28T10:59:58.997Z,58.23
2022-10-28T11:00:58.973Z,58.40
2022-10-28T11:01:59.111Z,56.36
2022-10-28T11:02:58.977Z,55.81
2022-10-28T11:04:58.941Z,57.06
2022-10-28T11:06:57.448Z,56.36
2022-10-28T11:07:58.364Z,56.90
2022-10-28T11:08:58.555Z,57.17
2022-10-28T11:09:58.376Z,56.11
2022-10-28T11:10:58.395Z,55.11
2022-10-28T11:11:58.361Z,55.94
2022-10-28T11:12:58.329Z,57.13
2022-10-28T11:13:58.313Z,56.23
2022-10-28T11:14:58.311Z,57.07
2022-10-28T11:15:58.319Z,55.32
2022-10-28T11:16:58.287Z,55.64
2022-10-28T11:17:58.268Z,56.95
2022-10-28T11:18:58.280Z,58.47
2022-10-28T11:19:58.256Z,57.98
2022-10-28T11:20:58.265Z,58.00
2022-10-28T11:21:58.237Z,59.30
2022-10-28T11:22:58.223Z,57.75
2022-10-28T11:23:58.206Z,57.51
2022-10-28T11:24:58.200Z,58.27
2022-10-28T11:25:58.196Z,60.69
2022-10-28T11:26:58.188Z,58.64
2022-10-28T11:28:01.601Z,58.84
2022-10-28T11:28:58.166Z,57.68
2022-10-28T11:29:58.152Z,58.27
2022-10-28T11:30:58.168Z,58.17
2022-10-28T11:31:58.140Z,57.90
2022-10-28T11:33:08.216Z,59.79
2022-10-28T11:33:58.107Z,59.49
2022-10-28T11:34:58.103Z,58.50
2022-10-28T11:35:58.080Z,58.15
2022-10-28T11:36:58.077Z,56.13
2022-10-28T11:37:58.052Z,55.41
2022-10-28T11:38:58.050Z,55.11
2022-10-28T11:39:58.054Z,55.81
2022-10-28T11:40:58.030Z,54.32
2022-10-28T11:41:58.019Z,55.32
2022-10-28T11:42:58.311Z,55.56
2022-10-28T11:44:03.788Z,55.83
2022-10-28T11:44:58.009Z,53.45
2022-10-28T11:45:57.981Z,54.07
2022-10-28T11:47:02.447Z,55.96
2022-10-28T11:47:58.044Z,54.57
2022-10-28T11:48:57.961Z,55.68
2022-10-28T11:49:57.945Z,55.88
2022-10-28T11:50:57.924Z,56.40
2022-10-28T11:51:57.907Z,58.61
2022-10-28T11:52:57.905Z,57.28
2022-10-28T11:53:57.892Z,59.00
2022-10-28T11:54:57.903Z,58.53
2022-10-28T11:55:57.869Z,59.00
2022-10-28T11:56:57.869Z,60.88
2022-10-28T11:57:58.026Z,58.73
2022-10-28T11:58:57.840Z,59.22
2022-10-28T11:59:57.862Z,60.42
2022-10-28T12:00:57.824Z,60.84
2022-10-28T12:01:57.906Z,59.98
2022-10-28T12:02:58.063Z,60.44
2022-10-28T12:03:57.783Z,62.34
2022-10-28T12:04:57.805Z,61.34
2022-10-28T12:05:57.769Z,61.83
2022-10-28T12:06:57.748Z,61.14
2022-10-28T12:07:57.745Z,59.98
2022-10-28T12:08:57.782Z,61.17
2022-10-28T12:09:57.738Z,61.47
2022-10-28T12:10:57.711Z,63.95
2022-10-28T12:11:57.736Z,62.26
2022-10-28T12:12:58.208Z,61.07
2022-10-28T12:13:57.698Z,61.87
2022-10-28T12:14:57.679Z,63.46
2022-10-28T12:15:57.659Z,61.50
2022-10-28T12:16:57.647Z,62.59
2022-10-28T12:17:57.883Z,64.01
2022-10-28T12:18:57.629Z,63.02
2022-10-28T12:19:57.631Z,62.42
2022-10-28T12:20:57.702Z,62.82
2022-10-28T12:21:57.591Z,62.62
2022-10-28T12:22:58.136Z,62.49
2022-10-28T12:23:57.576Z,61.69
2022-10-28T12:24:57.634Z,62.26
2022-10-28T12:25:57.542Z,62.34
2022-10-28T12:26:57.541Z,60.84
2022-10-28T12:27:57.523Z,61.31
2022-10-28T12:28:57.518Z,59.22
2022-10-28T12:29:57.515Z,59.49
2022-10-28T12:30:57.495Z,60.69
2022-10-28T12:31:57.480Z,59.49
2022-10-28T12:32:57.594Z,59.27
2022-10-28T12:33:57.457Z,59.76
2022-10-28T12:34:57.474Z,59.47
2022-10-28T12:35:57.438Z,62.24
2022-10-28T12:36:57.435Z,60.58
2022-10-28T12:37:57.796Z,60.61
2022-10-28T12:38:57.409Z,63.00
2022-10-28T12:39:57.406Z,61.64
2022-10-28T12:40:57.403Z,62.53
2022-10-28T12:41:57.376Z,62.86
2022-10-28T12:42:57.781Z,62.86
2022-10-28T12:43:57.352Z,63.36
2022-10-28T12:44:57.345Z,62.16
2022-10-28T12:45:57.346Z,62.56
2022-10-28T12:46:57.325Z,62.56
2022-10-28T12:47:57.669Z,61.87
2022-10-28T12:48:57.296Z,61.74
2022-10-28T12:49:57.287Z,61.88
2022-10-28T12:50:57.292Z,61.38
2022-10-28T12:51:57.264Z,59.99
2022-10-28T12:52:57.353Z,62.07
2022-10-28T12:53:57.241Z,59.36
2022-10-28T12:54:57.253Z,59.59
2022-10-28T12:55:57.307Z,61.08
2022-10-28T12:56:57.215Z,59.96
2022-10-28T12:57:57.552Z,59.32
2022-10-28T12:58:57.230Z,59.72
2022-10-28T12:59:57.182Z,58.75
2022-10-28T13:00:57.217Z,60.05
2022-10-28T13:01:57.266Z,60.84
2022-10-28T13:02:57.392Z,61.27
2022-10-28T13:03:57.151Z,61.17
2022-10-28T13:04:57.123Z,61.96
2022-10-28T13:05:57.126Z,62.19
2022-10-28T13:06:57.100Z,62.10
2022-10-28T13:07:58.645Z,61.90
2022-10-28T13:09:57.083Z,62.10
2022-10-28T13:10:57.077Z,62.19
2022-10-28T13:11:57.067Z,61.60
2022-10-28T13:12:57.344Z,61.07
2022-10-28T13:13:57.104Z,61.27
2022-10-28T13:14:57.043Z,62.13
2022-10-28T13:15:57.034Z,59.92
2022-10-28T13:16:56.996Z,60.14
2022-10-28T13:17:57.393Z,62.34
2022-10-28T13:18:57.002Z,62.43
2022-10-28T13:19:56.982Z,60.55
2022-10-28T13:20:56.959Z,60.61
2022-10-28T13:21:56.948Z,61.61
2022-10-28T13:22:57.189Z,60.44
2022-10-28T13:23:56.926Z,59.75
2022-10-28T13:24:56.929Z,60.35
2022-10-28T13:25:56.905Z,61.34
2022-10-28T13:26:56.980Z,60.64
2022-10-28T13:27:57.199Z,60.55
2022-10-28T13:28:56.884Z,60.77
2022-10-28T13:29:56.859Z,61.24
2022-10-28T13:30:56.880Z,60.74
2022-10-28T13:31:56.852Z,63.43
2022-10-28T13:32:56.861Z,62.83
2022-10-28T13:33:56.865Z,60.64
2022-10-28T13:34:56.830Z,62.04
2022-10-28T13:35:56.834Z,61.83
2022-10-28T13:36:57.696Z,62.83
2022-10-28T13:37:57.178Z,62.66
2022-10-28T13:38:56.763Z,61.90
2022-10-28T13:39:56.781Z,61.90
2022-10-28T13:40:56.800Z,62.40
2022-10-28T13:41:56.732Z,62.16
2022-10-28T13:42:57.123Z,62.37
2022-10-28T13:43:56.724Z,63.66
2022-10-28T13:44:56.723Z,61.27
2022-10-28T13:45:56.690Z,61.50
2022-10-28T13:46:56.669Z,62.10
2022-10-28T13:47:56.668Z,63.98
2022-10-28T13:48:56.738Z,62.40
2022-10-28T13:49:56.698Z,63.19
2022-10-28T13:50:56.667Z,62.59
2022-10-28T13:51:56.666Z,63.95
2022-10-28T13:52:56.951Z,64.36
2022-10-28T13:53:56.655Z,63.79
2022-10-28T13:54:56.681Z,63.49
2022-10-28T13:55:56.583Z,67.27
2022-10-28T13:56:56.599Z,65.51
2022-10-28T13:57:56.876Z,64.51
2022-10-28T13:58:56.550Z,64.12
2022-10-28T13:59:56.601Z,64.42
2022-10-28T14:00:56.564Z,64.91
2022-10-28T14:02:07.553Z,64.81
2022-10-28T14:02:56.851Z,64.51
2022-10-28T14:03:56.497Z,65.41
2022-10-28T14:04:56.497Z,64.01
2022-10-28T14:05:56.598Z,65.44
2022-10-28T14:06:56.459Z,67.54
2022-10-28T14:07:56.954Z,67.93
2022-10-28T14:08:56.438Z,69.32
2022-10-28T14:09:56.465Z,70.26
2022-10-28T14:10:56.424Z,68.96
2022-10-28T14:11:56.409Z,71.15
2022-10-28T14:12:56.944Z,71.45
2022-10-28T14:13:56.388Z,69.79
2022-10-28T14:14:56.390Z,71.19
2022-10-28T14:16:56.347Z,72.32
2022-10-28T14:18:04.822Z,73.22
2022-10-28T14:18:56.336Z,72.92
2022-10-28T14:19:56.350Z,71.92
2022-10-28T14:20:56.308Z,73.35
2022-10-28T14:22:01.476Z,72.16
2022-10-28T14:22:56.311Z,73.35
2022-10-28T14:23:56.275Z,72.95
2022-10-28T14:24:56.298Z,75.25
2022-10-28T14:25:56.411Z,75.85
2022-10-28T14:26:56.239Z,73.95
2022-10-28T14:27:56.689Z,75.25
2022-10-28T14:28:56.217Z,75.89
2022-10-28T14:29:56.247Z,75.48
2022-10-28T14:30:56.198Z,74.49
2022-10-28T14:31:56.184Z,76.08
2022-10-28T14:32:56.343Z,76.22
2022-10-28T14:33:56.183Z,77.12
2022-10-28T14:34:56.176Z,76.42
2022-10-28T14:35:56.151Z,76.72
2022-10-28T14:36:56.139Z,76.72
2022-10-28T14:37:56.118Z,76.82
2022-10-28T14:38:56.111Z,77.42
2022-10-28T14:39:56.118Z,77.15
2022-10-28T14:40:56.091Z,74.76
2022-10-28T14:41:56.139Z,72.02
2022-10-28T14:42:56.082Z,73.69
2022-10-28T14:43:56.068Z,74.29
2022-10-28T14:44:56.062Z,76.48
2022-10-28T14:45:56.050Z,70.56
2022-10-28T14:46:56.216Z,70.89
2022-10-28T14:47:56.191Z,72.75
2022-10-28T14:48:56.001Z,71.26
2022-10-28T14:49:56.022Z,74.55
2022-10-28T14:50:55.985Z,72.45
2022-10-28T14:51:55.974Z,69.29
2022-10-28T14:52:55.962Z,73.39
2022-10-28T14:53:55.961Z,67.80
2022-10-28T14:54:55.958Z,70.79
2022-10-28T14:55:55.933Z,70.76
2022-10-28T14:56:55.923Z,69.20
2022-10-28T14:57:56.279Z,66.56
2022-10-28T14:58:55.903Z,67.07
2022-10-28T14:59:55.923Z,69.26
2022-10-28T15:00:55.929Z,70.76
2022-10-28T15:01:55.988Z,69.09
2022-10-28T15:02:55.851Z,65.87
2022-10-28T15:03:55.850Z,68.70
2022-10-28T15:04:55.845Z,65.80
2022-10-28T15:05:55.828Z,66.17
2022-10-28T15:06:55.807Z,63.97
2022-10-28T15:07:56.099Z,68.56
2022-10-28T15:08:55.810Z,64.84
2022-10-28T15:09:55.855Z,66.06
2022-10-28T15:10:55.768Z,64.94
2022-10-28T15:11:55.770Z,67.57
2022-10-28T15:12:56.143Z,65.07
2022-10-28T15:13:55.740Z,64.47
2022-10-28T15:14:55.743Z,68.10
2022-10-28T15:15:57.370Z,66.63
2022-10-28T15:16:55.698Z,69.13
2022-10-28T15:17:55.693Z,67.83
2022-10-28T15:18:55.685Z,67.33
2022-10-28T15:19:55.708Z,66.16
2022-10-28T15:20:55.657Z,66.86
2022-10-28T15:21:59.264Z,69.56
2022-10-28T15:22:56.099Z,66.76
2022-10-28T15:23:55.637Z,69.86
2022-10-28T15:24:55.630Z,66.46
2022-10-28T15:25:55.607Z,67.83
2022-10-28T15:26:55.604Z,65.63
2022-10-28T15:27:55.924Z,66.33
2022-10-28T15:28:55.581Z,68.26
2022-10-28T15:29:55.581Z,68.59
2022-10-28T15:30:55.568Z,67.89
2022-10-28T15:31:55.607Z,66.09
2022-10-28T15:32:55.535Z,66.16
2022-10-28T15:33:55.526Z,69.06
2022-10-28T15:34:55.526Z,68.69
2022-10-28T15:35:55.515Z,71.09
2022-10-28T15:36:55.666Z,70.83
2022-10-28T15:37:55.754Z,71.46
2022-10-28T15:38:55.461Z,72.46
2022-10-28T15:39:58.644Z,72.69
2022-10-28T15:40:55.450Z,73.43
2022-10-28T15:41:55.479Z,70.12
2022-10-28T15:42:55.477Z,69.99
2022-10-28T15:43:55.416Z,72.39
2022-10-28T15:44:55.414Z,72.09
2022-10-28T15:45:55.396Z,70.39
2022-10-28T15:46:55.381Z,73.00
2022-10-28T15:47:55.795Z,72.23
2022-10-28T15:48:55.357Z,72.83
2022-10-28T15:49:55.367Z,73.47
2022-10-28T15:50:55.341Z,72.47
2022-10-28T15:51:55.333Z,73.27
2022-10-28T15:52:55.645Z,75.21
2022-10-28T15:53:55.324Z,74.51
2022-10-28T15:54:55.377Z,75.60
2022-10-28T15:56:07.124Z,76.25
2022-10-28T15:56:55.279Z,75.95
2022-10-28T15:57:55.266Z,77.39
2022-10-28T15:58:55.251Z,76.48
2022-10-28T15:59:55.259Z,73.77
2022-10-28T16:00:55.340Z,76.25
2022-10-28T16:01:55.415Z,75.04
2022-10-28T16:02:55.845Z,74.54
2022-10-28T16:03:55.205Z,74.14
2022-10-28T16:04:55.213Z,76.54
2022-10-28T16:05:55.186Z,75.84
2022-10-28T16:06:55.171Z,77.79
2022-10-28T16:07:55.599Z,77.62
2022-10-28T16:08:55.147Z,76.02
2022-10-28T16:09:55.155Z,77.39
2022-10-28T16:10:55.142Z,74.68
2022-10-28T16:11:55.114Z,75.64
2022-10-28T16:12:55.109Z,75.54
2022-10-28T16:13:55.098Z,76.34
2022-10-28T16:14:55.094Z,76.08
2022-10-28T16:15:55.081Z,75.08
2022-10-28T16:16:57.119Z,74.34
2022-10-28T16:17:55.465Z,75.14
2022-10-28T16:18:55.037Z,74.24
2022-10-28T16:19:55.271Z,74.84
2022-10-28T16:20:55.058Z,75.84
2022-10-28T16:21:55.009Z,74.04
2022-10-28T16:22:55.006Z,76.15
2022-10-28T16:23:54.986Z,75.68
2022-10-28T16:24:54.991Z,76.38
2022-10-28T16:25:54.963Z,77.02
2022-10-28T16:26:54.961Z,77.02
2022-10-28T16:27:55.216Z,77.92
2022-10-28T16:28:54.928Z,76.42
2022-10-28T16:29:54.940Z,77.32
2022-10-28T16:30:54.898Z,77.83
2022-10-28T16:31:54.893Z,78.56
2022-10-28T16:32:55.204Z,78.97
2022-10-28T16:33:54.871Z,79.50
2022-10-28T16:34:54.882Z,79.81
2022-10-28T16:35:54.853Z,80.05
2022-10-28T16:36:54.833Z,81.15
2022-10-28T16:37:55.749Z,80.95
2022-10-28T16:38:54.819Z,81.19
2022-10-28T16:39:54.824Z,81.99
2022-10-28T16:40:54.804Z,81.90
2022-10-28T16:41:54.788Z,81.59
2022-10-28T16:42:55.130Z,81.59
2022-10-28T16:43:54.823Z,81.39
2022-10-28T16:44:54.770Z,81.59
2022-10-28T16:45:54.749Z,81.59
2022-10-28T16:46:54.720Z,82.90
2022-10-28T16:47:55.003Z,82.54
2022-10-28T16:48:54.696Z,82.84
2022-10-28T16:49:57.292Z,83.54
2022-10-28T16:50:54.681Z,83.59
2022-10-28T16:51:54.679Z,83.28
2022-10-28T16:52:54.662Z,83.18
2022-10-28T16:53:54.655Z,83.79
2022-10-28T16:54:54.641Z,83.79
2022-10-28T16:55:54.627Z,83.89
2022-10-28T16:56:54.613Z,83.08
2022-10-28T16:57:54.919Z,82.50
2022-10-28T16:58:54.589Z,83.45
2022-10-28T16:59:54.600Z,83.45
2022-10-28T17:00:54.588Z,83.95
2022-10-28T17:01:54.645Z,84.59
2022-10-28T17:02:54.550Z,84.39
2022-10-28T17:03:54.542Z,84.80
2022-10-28T17:04:54.538Z,84.83
2022-10-28T17:05:54.523Z,83.59
2022-10-28T17:07:01.014Z,84.19
2022-10-28T17:07:54.750Z,83.34
2022-10-28T17:09:03.041Z,82.94
2022-10-28T17:09:54.491Z,82.44
2022-10-28T17:10:54.504Z,82.20
2022-10-28T17:11:54.444Z,80.55
2022-10-28T17:12:54.653Z,81.56
2022-10-28T17:13:54.425Z,82.20
2022-10-28T17:14:54.415Z,82.60
2022-10-28T17:15:54.413Z,82.94
2022-10-28T17:16:54.397Z,83.25
2022-10-28T17:17:54.378Z,83.84
2022-10-28T17:18:54.373Z,84.09
2022-10-28T17:19:54.359Z,84.39
2022-10-28T17:20:54.364Z,84.69
2022-10-28T17:21:54.340Z,84.69
2022-10-28T17:22:54.551Z,85.74
2022-10-28T17:23:54.314Z,85.44
2022-10-28T17:24:54.311Z,85.74
2022-10-28T17:25:54.301Z,84.89
2022-10-28T17:26:54.414Z,85.00
2022-10-28T17:27:54.572Z,84.80
2022-10-28T17:28:54.365Z,85.24
2022-10-28T17:29:54.320Z,85.54
2022-10-28T17:30:54.273Z,85.94
2022-10-28T17:31:54.230Z,86.04
2022-10-28T17:32:54.219Z,86.29
2022-10-28T17:33:54.219Z,86.49
2022-10-28T17:34:54.205Z,86.79
2022-10-28T17:35:54.184Z,87.19
2022-10-28T17:36:54.190Z,87.09
2022-10-28T17:37:54.448Z,87.40
2022-10-28T17:38:54.152Z,87.49
2022-10-28T17:40:54.131Z,87.84
2022-10-28T17:41:54.136Z,88.04
2022-10-28T17:42:54.305Z,87.94
2022-10-28T17:43:54.100Z,87.94
2022-10-28T17:44:54.130Z,88.04